createdAt,value
2022-09-29T00:02:09.256Z,61.70
2022-09-29T00:04:35.897Z,61.70
2022-09-29T00:07:02.646Z,61.70
2022-09-29T00:09:29.461Z,61.60
2022-09-29T00:11:56.815Z,61.50
2022-09-29T00:14:24.671Z,61.60
2022-09-29T00:16:51.526Z,61.60
2022-09-29T00:19:19.303Z,61.60
2022-09-29T00:21:46.058Z,61.60
2022-09-29T00:24:12.842Z,61.60
2022-09-29T00:26:39.614Z,61.50
2022-09-29T00:29:06.407Z,61.50
2022-09-29T00:31:34.061Z,61.50
2022-09-29T00:34:00.815Z,61.50
2022-09-29T00:36:30.392Z,61.50
2022-09-29T00:38:58.331Z,61.50
2022-09-29T00:41:34.334Z,61.50
2022-09-29T00:44:10.019Z,61.60
2022-09-29T00:46:52.324Z,61.60
2022-09-29T00:49:41.601Z,61.40
2022-09-29T00:52:13.554Z,61.50
2022-09-29T00:54:45.684Z,61.40
2022-09-29T00:57:15.562Z,61.50
2022-09-29T00:59:52.699Z,61.50
2022-09-29T01:02:20.930Z,61.50
2022-09-29T01:04:51.869Z,61.50
2022-09-29T01:07:22.503Z,61.50
2022-09-29T01:09:52.069Z,61.50
2022-09-29T01:12:18.904Z,61.50
2022-09-29T01:14:47.400Z,61.50
2022-09-29T01:17:14.767Z,61.50
2022-09-29T01:20:20.609Z,61.40
2022-09-29T01:23:11.885Z,61.50
2022-09-29T01:26:19.385Z,60.90
2022-09-29T01:29:16.781Z,61.40
2022-09-29T01:31:55.636Z,61.50
2022-09-29T01:34:35.060Z,61.60
2022-09-29T01:37:14.362Z,61.70
2022-09-29T01:39:54.692Z,61.70
2022-09-29T01:42:32.681Z,61.60
2022-09-29T01:45:36.638Z,61.70
2022-09-29T01:48:13.646Z,61.50
2022-09-29T01:50:45.709Z,61.50
2022-09-29T01:53:17.780Z,61.50
2022-09-29T01:55:53.093Z,61.50
2022-09-29T01:58:32.992Z,61.60
2022-09-29T02:01:04.606Z,61.60
2022-09-29T02:04:19.010Z,61.40
2022-09-29T02:06:53.721Z,61.30
2022-09-29T02:09:28.293Z,61.50
2022-09-29T02:11:59.047Z,61.50
2022-09-29T02:14:29.828Z,61.40
2022-09-29T02:17:07.940Z,61.40
2022-09-29T02:19:39.239Z,61.50
2022-09-29T02:22:05.873Z,61.50
2022-09-29T02:24:32.835Z,61.30
2022-09-29T02:27:00.105Z,61.40
2022-09-29T02:29:27.514Z,61.30
2022-09-29T02:31:57.436Z,61.30
2022-09-29T02:34:24.520Z,61.30
2022-09-29T02:37:09.272Z,61.30
2022-09-29T02:39:49.210Z,61.40
2022-09-29T02:42:26.151Z,61.40
2022-09-29T02:45:19.125Z,61.40
2022-09-29T02:48:07.304Z,61.30
2022-09-29T02:51:12.343Z,61.40
2022-09-29T02:54:06.616Z,61.40
2022-09-29T02:56:54.266Z,61.30
2022-09-29T02:59:27.436Z,61.30
2022-09-29T03:01:56.179Z,61.30
2022-09-29T03:04:25.777Z,61.30
2022-09-29T03:06:53.418Z,61.30
2022-09-29T03:09:21.012Z,61.30
2022-09-29T03:11:47.685Z,61.30
2022-09-29T03:14:14.342Z,61.40
2022-09-29T03:16:41.244Z,61.30
2022-09-29T03:19:07.867Z,61.30
2022-09-29T03:21:35.429Z,61.30
2022-09-29T03:24:02.176Z,61.20
2022-09-29T03:26:30.101Z,61.20
2022-09-29T03:28:57.023Z,61.20
2022-09-29T03:31:23.680Z,61.20
2022-09-29T03:33:50.411Z,61.20
2022-09-29T03:36:17.074Z,61.20
2022-09-29T03:38:45.471Z,61.20
2022-09-29T03:41:12.237Z,61.20
2022-09-29T03:43:38.864Z,61.20
2022-09-29T03:46:06.136Z,61.20
2022-09-29T03:48:35.002Z,61.10
2022-09-29T03:51:01.948Z,61.10
2022-09-29T03:53:28.610Z,61.10
2022-09-29T03:55:55.290Z,61.10
2022-09-29T03:58:22.071Z,61.10
2022-09-29T04:00:49.894Z,61.10
2022-09-29T04:03:16.843Z,61.10
2022-09-29T04:05:45.664Z,61.10
2022-09-29T04:08:12.369Z,61.10
2022-09-29T04:10:39.854Z,61.00
2022-09-29T04:13:07.374Z,61.00
2022-09-29T04:15:34.382Z,61.00
2022-09-29T04:18:01.104Z,61.10
2022-09-29T04:20:27.948Z,61.00
2022-09-29T04:22:54.559Z,61.10
2022-09-29T04:25:21.610Z,61.10
2022-09-29T04:27:48.393Z,61.10
2022-09-29T04:30:16.193Z,61.10
2022-09-29T04:32:43.037Z,61.10
2022-09-29T04:35:10.223Z,61.10
2022-09-29T04:37:37.100Z,61.00
2022-09-29T04:40:05.973Z,61.00
2022-09-29T04:42:32.812Z,61.10
2022-09-29T04:44:59.571Z,61.10
2022-09-29T04:47:26.299Z,61.10
2022-09-29T04:49:52.951Z,61.20
2022-09-29T04:52:19.617Z,61.10
2022-09-29T04:54:46.223Z,61.10
2022-09-29T04:57:13.013Z,61.10
2022-09-29T04:59:39.890Z,61.20
2022-09-29T05:02:06.638Z,61.20
2022-09-29T05:04:33.487Z,61.20
2022-09-29T05:07:00.179Z,61.10
2022-09-29T05:09:31.071Z,61.20
2022-09-29T05:11:59.937Z,61.10
2022-09-29T05:14:26.523Z,61.10
2022-09-29T05:16:55.166Z,61.20
2022-09-29T05:19:22.135Z,61.20
2022-09-29T05:21:48.910Z,61.30
2022-09-29T05:24:15.727Z,61.50
2022-09-29T05:26:42.475Z,61.50
2022-09-29T05:29:09.090Z,61.50
2022-09-29T05:31:35.705Z,61.40
2022-09-29T05:34:02.533Z,61.40
2022-09-29T05:36:29.132Z,61.30
2022-09-29T05:38:56.364Z,61.40
2022-09-29T05:41:23.385Z,61.30
2022-09-29T05:43:51.344Z,61.30
2022-09-29T05:46:19.240Z,61.30
2022-09-29T05:48:46.936Z,61.30
2022-09-29T05:51:18.387Z,61.20
2022-09-29T05:53:48.627Z,61.20
2022-09-29T05:56:20.538Z,61.10
2022-09-29T05:58:47.412Z,61.30
2022-09-29T06:01:23.378Z,61.90
2022-09-29T06:03:53.410Z,62.00
2022-09-29T06:06:24.019Z,61.90
2022-09-29T06:08:51.687Z,61.80
2022-09-29T06:11:21.324Z,61.80
2022-09-29T06:13:49.711Z,61.80
2022-09-29T06:16:18.592Z,61.80
2022-09-29T06:18:45.414Z,61.70
2022-09-29T06:21:14.257Z,61.70
2022-09-29T06:23:41.306Z,61.70
2022-09-29T06:26:10.705Z,61.70
2022-09-29T06:28:37.762Z,61.80
2022-09-29T06:31:07.433Z,61.70
2022-09-29T06:33:36.565Z,61.80
2022-09-29T06:36:28.390Z,61.80
2022-09-29T06:38:55.532Z,61.80
2022-09-29T06:41:22.134Z,61.60
2022-09-29T06:43:48.835Z,61.70
2022-09-29T06:46:15.460Z,61.70
2022-09-29T06:48:42.128Z,61.80
2022-09-29T06:51:10.533Z,61.80
2022-09-29T06:53:38.808Z,62.00
2022-09-29T06:56:06.148Z,62.10
2022-09-29T06:58:32.971Z,62.10
2022-09-29T07:01:03.565Z,62.20
2022-09-29T07:03:30.735Z,62.30
2022-09-29T07:06:18.267Z,62.20
2022-09-29T07:08:44.474Z,62.20
2022-09-29T07:11:12.103Z,62.10
2022-09-29T07:13:38.873Z,62.30
2022-09-29T07:16:10.411Z,62.20
2022-09-29T07:18:39.544Z,62.40
2022-09-29T07:21:09.972Z,62.40
2022-09-29T07:23:37.834Z,62.50
2022-09-29T07:26:06.976Z,62.60
2022-09-29T07:28:33.866Z,62.80
2022-09-29T07:31:15.245Z,62.60
2022-09-29T07:33:43.904Z,62.80
2022-09-29T07:36:10.798Z,62.80
2022-09-29T07:38:37.542Z,62.60
2022-09-29T07:41:10.485Z,62.90
2022-09-29T07:43:37.830Z,62.80
2022-09-29T07:46:05.639Z,62.90
2022-09-29T07:48:33.676Z,62.80
2022-09-29T07:51:02.681Z,62.90
2022-09-29T07:53:30.713Z,63.00
2022-09-29T07:56:03.290Z,63.30
2022-09-29T07:58:32.213Z,63.20
2022-09-29T08:00:59.988Z,62.90
2022-09-29T08:03:26.674Z,63.10
2022-09-29T08:05:54.071Z,63.00
2022-09-29T08:08:20.870Z,63.50
2022-09-29T08:10:53.369Z,63.60
2022-09-29T08:13:21.281Z,63.30
2022-09-29T08:15:47.971Z,63.30
2022-09-29T08:18:14.615Z,63.20
2022-09-29T08:20:41.248Z,63.10
2022-09-29T08:23:08.022Z,63.20
2022-09-29T08:25:36.771Z,63.00
2022-09-29T08:28:03.611Z,63.10
2022-09-29T08:30:30.431Z,63.20
2022-09-29T08:32:57.132Z,63.00
2022-09-29T08:35:25.344Z,63.00
2022-09-29T08:37:55.267Z,63.20
2022-09-29T08:40:22.227Z,63.60
2022-09-29T08:42:54.587Z,63.90
2022-09-29T08:45:32.162Z,64.20
2022-09-29T08:48:22.285Z,64.80
2022-09-29T08:50:59.502Z,65.20
2022-09-29T08:53:30.380Z,65.30
2022-09-29T08:55:59.096Z,65.40
2022-09-29T08:58:26.270Z,65.80
2022-09-29T09:01:20.472Z,66.40
2022-09-29T09:04:21.725Z,66.70
2022-09-29T09:07:01.898Z,67.20
2022-09-29T09:09:47.139Z,67.40
2022-09-29T09:12:47.960Z,67.30
2022-09-29T09:15:35.205Z,68.00
2022-09-29T09:18:34.376Z,68.40
2022-09-29T09:21:09.374Z,68.70
2022-09-29T09:24:00.050Z,68.90
2022-09-29T09:26:43.315Z,69.10
2022-09-29T09:29:37.928Z,69.40
2022-09-29T09:32:14.107Z,69.30
2022-09-29T09:34:47.322Z,69.30
2022-09-29T09:37:35.137Z,69.20
2022-09-29T09:40:19.972Z,69.20
2022-09-29T09:42:53.736Z,69.30
2022-09-29T09:45:30.348Z,68.90
2022-09-29T09:48:10.466Z,68.80
2022-09-29T09:50:43.107Z,68.70
2022-09-29T09:53:22.427Z,68.40
2022-09-29T09:56:01.133Z,68.10
2022-09-29T09:58:49.921Z,67.70
2022-09-29T10:01:17.153Z,67.20
2022-09-29T10:03:43.907Z,66.90
2022-09-29T10:06:10.519Z,66.60
2022-09-29T10:08:42.062Z,66.20
2022-09-29T10:11:25.190Z,65.80
2022-09-29T10:14:26.503Z,65.30
2022-09-29T10:17:07.183Z,65.00
2022-09-29T10:19:58.596Z,64.30
2022-09-29T10:22:26.728Z,63.90
2022-09-29T10:25:05.557Z,63.40
2022-09-29T10:27:32.247Z,62.80
2022-09-29T10:30:00.209Z,62.40
2022-09-29T10:32:37.047Z,61.90
2022-09-29T10:35:16.399Z,61.50
2022-09-29T10:37:47.421Z,61.10
2022-09-29T10:40:18.549Z,60.70
2022-09-29T10:42:48.713Z,60.40
2022-09-29T10:45:26.137Z,60.10
2022-09-29T10:47:58.855Z,59.70
2022-09-29T10:50:27.201Z,59.30
2022-09-29T10:52:58.517Z,59.10
2022-09-29T10:55:34.001Z,58.70
2022-09-29T10:58:07.884Z,58.40
2022-09-29T11:00:38.138Z,57.70
2022-09-29T11:03:09.251Z,57.20
2022-09-29T11:05:37.761Z,57.60
2022-09-29T11:08:04.724Z,57.50
2022-09-29T11:10:37.355Z,57.20
2022-09-29T11:13:35.257Z,56.90
2022-09-29T11:16:17.357Z,57.60
2022-09-29T11:18:48.459Z,56.90
2022-09-29T11:21:21.559Z,56.40
2022-09-29T11:24:10.786Z,56.40
2022-09-29T11:26:49.563Z,56.90
2022-09-29T11:29:51.753Z,56.40
2022-09-29T11:32:51.016Z,56.90
2022-09-29T11:35:36.320Z,57.10
2022-09-29T11:38:25.949Z,56.70
2022-09-29T11:41:08.431Z,56.60
2022-09-29T11:43:49.244Z,56.10
2022-09-29T11:46:53.363Z,55.60
2022-09-29T11:50:03.284Z,55.90
2022-09-29T11:52:53.226Z,55.00
2022-09-29T11:55:45.251Z,54.30
2022-09-29T11:58:52.172Z,54.20
2022-09-29T12:01:19.280Z,54.70
2022-09-29T12:03:49.612Z,54.40
2022-09-29T12:06:52.137Z,54.10
2022-09-29T12:09:18.852Z,54.10
2022-09-29T12:12:28.929Z,53.30
2022-09-29T12:15:10.608Z,54.10
2022-09-29T12:17:43.404Z,54.00
2022-09-29T12:20:24.059Z,53.70
2022-09-29T12:22:54.716Z,53.70
2022-09-29T12:25:26.743Z,53.40
2022-09-29T12:27:59.050Z,53.40
2022-09-29T12:30:29.934Z,53.10
2022-09-29T12:33:13.600Z,52.70
2022-09-29T12:35:55.682Z,53.00
2022-09-29T12:38:40.187Z,52.00
2022-09-29T12:41:29.119Z,52.20
2022-09-29T12:44:05.198Z,53.30
2022-09-29T12:46:37.186Z,53.00
2022-09-29T12:49:09.036Z,52.70
2022-09-29T12:51:42.510Z,52.90
2022-09-29T12:54:12.471Z,52.70
2022-09-29T12:57:05.265Z,53.30
2022-09-29T12:59:38.929Z,53.60
2022-09-29T13:02:22.502Z,53.30
2022-09-29T13:05:26.534Z,52.70
2022-09-29T13:08:14.687Z,52.70
2022-09-29T13:11:13.092Z,52.20
2022-09-29T13:13:40.112Z,52.00
2022-09-29T13:16:25.362Z,52.50
2022-09-29T13:19:45.693Z,52.40
2022-09-29T13:22:32.488Z,52.90
2022-09-29T13:25:39.658Z,52.60
2022-09-29T13:28:25.100Z,53.40
2022-09-29T13:30:54.292Z,52.70
2022-09-29T13:33:24.949Z,53.00
2022-09-29T13:35:52.663Z,52.90
2022-09-29T13:38:25.524Z,53.40
2022-09-29T13:41:12.630Z,54.20
2022-09-29T13:43:51.188Z,54.10
2022-09-29T13:46:31.376Z,54.00
2022-09-29T13:49:11.628Z,54.00
2022-09-29T13:51:45.952Z,55.10
2022-09-29T13:54:33.565Z,54.50
2022-09-29T13:57:04.047Z,55.60
2022-09-29T13:59:31.232Z,54.90
2022-09-29T14:01:59.291Z,55.70
2022-09-29T14:04:50.987Z,56.00
2022-09-29T14:07:39.696Z,56.50
2022-09-29T14:10:28.052Z,55.70
2022-09-29T14:13:10.509Z,55.80
2022-09-29T14:16:01.139Z,54.40
2022-09-29T14:18:38.508Z,54.90
2022-09-29T14:21:10.274Z,54.70
2022-09-29T14:23:49.498Z,55.20
2022-09-29T14:26:48.389Z,55.30
2022-09-29T14:29:32.704Z,56.00
2022-09-29T14:32:01.457Z,55.10
2022-09-29T14:34:31.261Z,54.70
2022-09-29T14:37:00.332Z,54.30
2022-09-29T14:39:29.475Z,54.30
2022-09-29T14:41:56.505Z,53.80
2022-09-29T14:44:56.551Z,54.10
2022-09-29T14:48:11.765Z,53.80
2022-09-29T14:51:12.262Z,54.70
2022-09-29T14:54:00.608Z,53.60
2022-09-29T14:56:45.965Z,54.70
2022-09-29T14:59:30.766Z,54.10
2022-09-29T15:02:06.917Z,54.00
2022-09-29T15:04:39.777Z,54.10
2022-09-29T15:07:13.194Z,53.70
2022-09-29T15:09:44.572Z,53.10
2022-09-29T15:12:16.856Z,53.10
2022-09-29T15:14:43.547Z,52.90
2022-09-29T15:17:34.079Z,53.20
2022-09-29T15:20:45.104Z,53.40
2022-09-29T15:23:20.495Z,54.30
2022-09-29T15:25:48.092Z,53.90
2022-09-29T15:28:25.605Z,54.40
2022-09-29T15:30:54.757Z,54.20
2022-09-29T15:33:27.688Z,54.10
2022-09-29T15:35:59.841Z,54.10
2022-09-29T15:38:32.724Z,54.10
2022-09-29T15:41:05.200Z,54.70
2022-09-29T15:43:41.094Z,54.70
2022-09-29T15:46:18.025Z,54.60
2022-09-29T15:49:04.707Z,54.80
2022-09-29T15:51:32.139Z,55.50
2022-09-29T15:54:07.387Z,55.10
2022-09-29T15:57:03.118Z,55.20
2022-09-29T15:59:41.808Z,55.50
2022-09-29T16:02:19.541Z,55.60
2022-09-29T16:04:48.255Z,55.40
2022-09-29T16:07:27.892Z,55.60
2022-09-29T16:10:04.549Z,55.80
2022-09-29T16:12:39.049Z,55.90
2022-09-29T16:15:07.216Z,55.90
2022-09-29T16:17:33.899Z,56.20
2022-09-29T16:20:00.995Z,56.00
2022-09-29T16:22:28.091Z,56.40
2022-09-29T16:25:08.919Z,56.40
2022-09-29T16:27:40.853Z,56.30
2022-09-29T16:30:26.331Z,56.10
2022-09-29T16:32:57.087Z,56.70
2022-09-29T16:35:54.554Z,56.80
2022-09-29T16:38:38.615Z,57.10
2022-09-29T16:41:16.344Z,57.20
2022-09-29T16:43:45.020Z,57.20
2022-09-29T16:46:20.818Z,57.30
2022-09-29T16:48:49.416Z,57.40
2022-09-29T16:51:40.216Z,57.40
2022-09-29T16:54:14.783Z,57.50
2022-09-29T16:56:45.476Z,57.60
2022-09-29T16:59:20.965Z,57.70
2022-09-29T17:01:48.319Z,57.70
2022-09-29T17:04:15.367Z,57.70
2022-09-29T17:06:47.470Z,57.80
2022-09-29T17:09:20.227Z,58.00
2022-09-29T17:11:49.681Z,58.00
2022-09-29T17:14:18.541Z,58.10
2022-09-29T17:16:45.913Z,58.30
2022-09-29T17:19:12.567Z,58.40
2022-09-29T17:21:39.265Z,58.50
2022-09-29T17:24:05.936Z,58.60
2022-09-29T17:27:11.584Z,58.70
2022-09-29T17:29:38.316Z,58.80
2022-09-29T17:32:12.910Z,58.80
2022-09-29T17:34:39.683Z,59.00
2022-09-29T17:37:06.616Z,59.00
2022-09-29T17:39:33.387Z,59.20
2022-09-29T17:42:00.728Z,59.30
2022-09-29T17:44:27.808Z,59.40
2022-09-29T17:47:05.589Z,59.40
2022-09-29T17:49:43.801Z,59.50
2022-09-29T17:52:15.088Z,59.60
2022-09-29T17:54:42.535Z,59.60
2022-09-29T17:57:20.066Z,59.70
2022-09-29T17:59:47.360Z,59.80
2022-09-29T18:02:14.058Z,59.80
2022-09-29T18:04:48.295Z,59.80
2022-09-29T18:07:15.940Z,59.90
2022-09-29T18:09:43.021Z,59.80
2022-09-29T18:12:09.757Z,59.90
2022-09-29T18:14:36.898Z,60.10
2022-09-29T18:17:05.651Z,60.10
2022-09-29T18:19:35.663Z,60.20
2022-09-29T18:22:06.179Z,60.20
2022-09-29T18:24:33.848Z,60.30
2022-09-29T18:27:00.720Z,60.30
2022-09-29T18:29:27.751Z,60.40
2022-09-29T18:31:54.415Z,60.40
2022-09-29T18:34:24.816Z,60.50
2022-09-29T18:36:51.809Z,60.60
2022-09-29T18:39:18.483Z,60.60
2022-09-29T18:41:47.098Z,60.60
2022-09-29T18:44:16.116Z,60.60
2022-09-29T18:46:44.248Z,60.60
2022-09-29T18:49:12.545Z,60.60
2022-09-29T18:51:39.662Z,60.70
2022-09-29T18:54:07.632Z,60.70
2022-09-29T18:56:34.849Z,60.80
2022-09-29T18:59:03.554Z,60.80
2022-09-29T19:01:30.284Z,60.90
2022-09-29T19:03:57.538Z,61.10
2022-09-29T19:06:24.375Z,61.10
2022-09-29T19:08:56.769Z,61.00
2022-09-29T19:11:26.229Z,61.10
2022-09-29T19:13:57.132Z,61.00
2022-09-29T19:16:24.275Z,61.10
2022-09-29T19:18:51.092Z,61.20
2022-09-29T19:21:18.190Z,61.20
2022-09-29T19:23:47.383Z,61.10
2022-09-29T19:26:19.066Z,61.10
2022-09-29T19:28:48.040Z,61.30
2022-09-29T19:31:21.252Z,61.30
2022-09-29T19:33:48.530Z,61.30
2022-09-29T19:36:18.684Z,61.20
2022-09-29T19:38:46.105Z,61.30
2022-09-29T19:41:19.765Z,61.30
2022-09-29T19:43:50.269Z,61.40
2022-09-29T19:46:19.152Z,61.20
2022-09-29T19:48:45.916Z,61.30
2022-09-29T19:51:35.548Z,61.20
2022-09-29T19:54:11.133Z,61.40
2022-09-29T19:56:48.373Z,61.30
2022-09-29T19:59:16.724Z,61.50
2022-09-29T20:01:45.639Z,61.40
2022-09-29T20:04:14.102Z,61.40
2022-09-29T20:06:41.377Z,61.40
2022-09-29T20:09:08.947Z,61.40
2022-09-29T20:11:37.935Z,61.50
2022-09-29T20:14:06.248Z,61.50
2022-09-29T20:16:36.543Z,61.50
2022-09-29T20:19:05.194Z,61.50
2022-09-29T20:21:32.155Z,61.50
2022-09-29T20:23:59.310Z,61.50
2022-09-29T20:26:26.237Z,61.40
2022-09-29T20:28:54.400Z,61.40
2022-09-29T20:31:23.214Z,61.40
2022-09-29T20:33:51.095Z,61.50
2022-09-29T20:36:18.698Z,61.40
2022-09-29T20:38:50.863Z,61.50
2022-09-29T20:41:18.079Z,61.50
2022-09-29T20:43:51.208Z,61.50
2022-09-29T20:46:18.662Z,61.60
2022-09-29T20:48:45.799Z,61.50
2022-09-29T20:51:17.412Z,61.50
2022-09-29T20:53:50.072Z,61.50
2022-09-29T20:56:18.183Z,61.60
2022-09-29T20:58:47.249Z,61.50
2022-09-29T21:01:20.970Z,61.60
2022-09-29T21:03:53.526Z,61.60
2022-09-29T21:06:21.766Z,61.60
2022-09-29T21:08:48.635Z,61.60
2022-09-29T21:11:15.740Z,61.60
2022-09-29T21:13:45.801Z,61.60
2022-09-29T21:16:12.569Z,61.60
2022-09-29T21:18:39.195Z,61.70
2022-09-29T21:21:10.131Z,61.70
2022-09-29T21:23:38.968Z,61.80
2022-09-29T21:26:14.323Z,61.80
2022-09-29T21:29:01.269Z,61.80
2022-09-29T21:31:30.351Z,61.80
2022-09-29T21:34:03.559Z,62.00
2022-09-29T21:36:33.429Z,62.20
2022-09-29T21:39:03.869Z,62.10
2022-09-29T21:41:38.918Z,62.10
2022-09-29T21:44:12.941Z,62.30
2022-09-29T21:46:40.296Z,62.30
2022-09-29T21:49:08.914Z,62.20
2022-09-29T21:51:47.962Z,62.30
2022-09-29T21:54:17.695Z,62.30
2022-09-29T21:56:46.717Z,62.40
2022-09-29T21:59:17.276Z,62.40
2022-09-29T22:01:45.303Z,62.40
2022-09-29T22:04:12.899Z,62.40
2022-09-29T22:06:40.586Z,62.40
2022-09-29T22:09:08.529Z,62.40
2022-09-29T22:11:38.718Z,62.30
2022-09-29T22:14:06.022Z,62.30
2022-09-29T22:16:34.726Z,62.10
2022-09-29T22:21:51.795Z,62.20
2022-09-29T22:24:18.538Z,62.00
2022-09-29T22:26:45.129Z,62.00
2022-09-29T22:29:11.699Z,61.90
2022-09-29T22:31:40.504Z,61.90
2022-09-29T22:34:07.709Z,61.90
2022-09-29T22:36:35.369Z,61.80
2022-09-29T22:39:03.889Z,61.80
2022-09-29T22:41:31.345Z,61.70
2022-09-29T22:44:00.002Z,61.70
2022-09-29T22:46:28.805Z,61.70
2022-09-29T22:48:55.906Z,61.70
2022-09-29T22:51:22.545Z,61.60
2022-09-29T22:53:49.867Z,61.60
2022-09-29T22:56:19.371Z,61.50
2022-09-29T22:58:49.361Z,61.50
2022-09-29T23:01:18.074Z,61.50
2022-09-29T23:03:45.666Z,61.50
2022-09-29T23:06:13.404Z,61.50
2022-09-29T23:08:40.609Z,61.50
2022-09-29T23:11:08.300Z,61.50
2022-09-29T23:13:36.908Z,61.40
2022-09-29T23:16:12.558Z,61.40
2022-09-29T23:18:45.097Z,61.50
2022-09-29T23:21:19.604Z,61.30
2022-09-29T23:24:13.047Z,61.50
2022-09-29T23:26:39.723Z,61.10
2022-09-29T23:29:07.919Z,61.30
2022-09-29T23:31:35.191Z,61.30
2022-09-29T23:34:02.108Z,61.30
2022-09-29T23:36:30.631Z,61.30
2022-09-29T23:39:09.763Z,61.40
2022-09-29T23:41:45.567Z,61.30
2022-09-29T23:44:15.442Z,61.40
2022-09-29T23:46:42.961Z,61.30
2022-09-29T23:49:12.565Z,61.30
2022-09-29T23:51:43.183Z,61.40
2022-09-29T23:54:12.123Z,61.40
2022-09-29T23:56:39.181Z,61.30
2022-09-29T23:59:06.309Z,61.20
